createdAt,value
2019-04-05T00:03:35.753Z,18.50
2019-04-05T00:06:01.852Z,18.50
2019-04-05T00:08:28.243Z,18.50
2019-04-05T00:10:54.333Z,18.50
2019-04-05T00:13:20.695Z,18.50
2019-04-05T00:15:46.747Z,18.50
2019-04-05T00:18:13.152Z,18.40
2019-04-05T00:25:32.092Z,18.50
2019-04-05T00:27:58.477Z,18.40
2019-04-05T00:32:50.983Z,18.50
2019-04-05T00:35:17.064Z,18.40
2019-04-05T00:37:43.113Z,18.40
2019-04-05T00:40:11.244Z,18.40
2019-04-05T00:42:37.327Z,18.40
2019-04-05T00:45:06.892Z,18.40
2019-04-05T00:47:32.936Z,18.40
2019-04-05T00:49:59.028Z,18.40
2019-04-05T00:54:52.105Z,18.40
2019-04-05T00:57:19.456Z,18.30
2019-04-05T00:59:45.495Z,18.30
2019-04-05T01:02:11.680Z,18.40
2019-04-05T01:04:38.072Z,18.40
2019-04-05T01:07:04.228Z,18.30
2019-04-05T01:09:30.594Z,18.30
2019-04-05T01:11:57.020Z,18.30
2019-04-05T01:14:25.181Z,18.30
2019-04-05T01:19:20.209Z,18.30
2019-04-05T01:26:43.676Z,18.30
2019-04-05T01:29:09.859Z,18.30
2019-04-05T01:31:36.261Z,18.30
2019-04-05T01:34:05.526Z,18.30
2019-04-05T01:36:32.296Z,18.30
2019-04-05T01:38:58.620Z,18.30
2019-04-05T01:43:51.918Z,18.30
2019-04-05T01:48:44.427Z,18.30
2019-04-05T01:51:12.485Z,18.30
2019-04-05T01:53:39.068Z,18.30
2019-04-05T01:56:05.224Z,18.30
2019-04-05T02:03:24.142Z,18.20
2019-04-05T02:05:50.233Z,18.20
2019-04-05T02:08:16.380Z,18.20
2019-04-05T02:10:44.297Z,18.20
2019-04-05T02:15:37.894Z,18.20
2019-04-05T02:20:30.939Z,18.20
2019-04-05T02:22:57.058Z,18.20
2019-04-05T02:25:24.014Z,18.20
2019-04-05T02:27:50.259Z,18.20
2019-04-05T02:30:18.540Z,18.20
2019-04-05T02:40:07.836Z,18.20
2019-04-05T02:52:27.990Z,18.10
2019-04-05T02:54:54.044Z,18.10
2019-04-05T02:57:21.884Z,18.10
2019-04-05T03:04:43.440Z,18.10
2019-04-05T03:07:09.489Z,18.10
2019-04-05T03:09:35.650Z,18.10
2019-04-05T03:12:03.326Z,18.10
2019-04-05T03:14:32.627Z,18.10
2019-04-05T03:16:59.806Z,18.10
2019-04-05T03:21:58.140Z,18.10
2019-04-05T03:24:27.992Z,18.10
2019-04-05T03:26:57.878Z,18.10
2019-04-05T03:29:24.328Z,18.10
2019-04-05T03:34:19.284Z,18.10
2019-04-05T03:36:45.877Z,18.10
2019-04-05T03:39:13.061Z,18.10
2019-04-05T03:41:39.473Z,18.10
2019-04-05T03:49:02.923Z,18.10
2019-04-05T03:56:25.249Z,18.10
2019-04-05T03:58:51.795Z,18.10
2019-04-05T04:08:37.481Z,18.20
2019-04-05T04:13:30.281Z,18.20
2019-04-05T04:15:57.751Z,18.20
2019-04-05T04:18:24.410Z,18.20
2019-04-05T04:20:54.298Z,18.20
2019-04-05T04:23:24.192Z,18.20
2019-04-05T04:28:17.233Z,18.20
2019-04-05T04:30:44.707Z,18.20
2019-04-05T04:35:39.397Z,18.20
2019-04-05T04:38:05.989Z,18.20
2019-04-05T04:43:00.268Z,18.20
2019-04-05T04:45:27.208Z,18.20
2019-04-05T04:47:53.796Z,18.20
2019-04-05T04:50:22.948Z,18.20
2019-04-05T04:52:50.596Z,18.20
2019-04-05T04:55:17.279Z,18.20
2019-04-05T05:00:11.920Z,18.20
2019-04-05T05:02:38.468Z,18.20
2019-04-05T05:05:06.853Z,18.20
2019-04-05T05:14:54.908Z,18.20
2019-04-05T05:19:47.412Z,18.20
2019-04-05T05:22:13.489Z,18.30
2019-04-05T05:27:07.072Z,18.30
2019-04-05T05:34:27.780Z,18.20
2019-04-05T05:36:54.844Z,18.20
2019-04-05T05:39:21.999Z,18.30
2019-04-05T05:41:48.074Z,18.20
2019-04-05T05:44:14.125Z,18.30
2019-04-05T05:46:40.472Z,18.30
2019-04-05T05:49:06.910Z,18.30
2019-04-05T05:51:33.200Z,18.30
2019-04-05T05:53:59.561Z,18.20
2019-04-05T05:56:25.891Z,18.30
2019-04-05T06:01:20.937Z,18.20
2019-04-05T06:03:46.984Z,18.30
2019-04-05T06:06:13.368Z,18.20
2019-04-05T06:08:39.692Z,18.20
2019-04-05T06:11:06.019Z,18.30
2019-04-05T06:15:59.918Z,18.20
2019-04-05T06:18:26.346Z,18.30
2019-04-05T06:23:18.903Z,18.30
2019-04-05T06:25:44.947Z,18.30
2019-04-05T06:28:11.355Z,18.20
2019-04-05T06:30:37.403Z,18.20
2019-04-05T06:33:03.491Z,18.30
2019-04-05T06:35:29.572Z,18.20
2019-04-05T06:37:55.625Z,18.30
2019-04-05T06:40:21.681Z,18.30
2019-04-05T06:42:47.762Z,18.30
2019-04-05T06:45:13.807Z,18.30
2019-04-05T06:50:07.607Z,18.30
2019-04-05T06:52:33.941Z,18.30
2019-04-05T06:54:59.983Z,18.30
2019-04-05T06:57:26.066Z,18.30
2019-04-05T06:59:52.122Z,18.30
2019-04-05T07:04:44.831Z,18.30
2019-04-05T07:07:10.864Z,18.30
2019-04-05T07:09:36.954Z,18.20
2019-04-05T07:14:29.421Z,18.30
2019-04-05T07:16:55.505Z,18.30
2019-04-05T07:19:21.683Z,18.30
2019-04-05T07:21:47.736Z,18.30
2019-04-05T07:24:13.821Z,18.30
2019-04-05T07:26:39.903Z,18.40
2019-04-05T07:29:06.221Z,18.30
2019-04-05T07:31:32.299Z,18.30
2019-04-05T07:33:58.373Z,18.40
2019-04-05T07:36:24.447Z,18.30
2019-04-05T07:38:50.492Z,18.40
2019-04-05T07:41:16.539Z,18.30
2019-04-05T07:43:42.623Z,18.40
2019-04-05T07:46:08.677Z,18.30
2019-04-05T07:48:44.251Z,18.40
2019-04-05T07:51:03.613Z,18.40
2019-04-05T07:53:29.756Z,18.30
2019-04-05T07:55:56.081Z,18.40
2019-04-05T07:58:22.395Z,18.40
2019-04-05T08:00:54.267Z,18.40
2019-04-05T08:03:22.749Z,18.40
2019-04-05T08:05:50.200Z,18.40
2019-04-05T08:08:31.583Z,18.40
2019-04-05T08:10:59.737Z,18.40
2019-04-05T08:13:28.221Z,18.40
2019-04-05T08:15:54.267Z,18.40
2019-04-05T08:18:20.692Z,18.40
2019-04-05T08:20:47.104Z,18.40
2019-04-05T08:23:13.440Z,18.40
2019-04-05T08:28:08.040Z,18.40
2019-04-05T08:30:34.376Z,18.40
2019-04-05T08:33:00.459Z,18.40
2019-04-05T08:45:13.984Z,18.40
2019-04-05T08:50:07.977Z,18.50
2019-04-05T08:52:34.303Z,18.50
2019-04-05T08:55:00.635Z,18.50
2019-04-05T08:57:26.680Z,18.50
2019-04-05T09:02:19.878Z,18.50
2019-04-05T09:04:45.925Z,18.50
2019-04-05T09:07:12.014Z,18.50
2019-04-05T09:09:38.413Z,18.50
2019-04-05T09:12:04.743Z,18.50
2019-04-05T09:16:57.573Z,18.50
2019-04-05T09:19:24.183Z,18.50
2019-04-05T09:21:51.440Z,18.60
2019-04-05T09:24:17.833Z,18.50
2019-04-05T09:26:43.912Z,18.50
2019-04-05T09:31:37.015Z,18.50
2019-04-05T09:34:03.095Z,18.50
2019-04-05T09:36:29.158Z,18.50
2019-04-05T09:38:55.231Z,18.50
2019-04-05T09:41:21.299Z,18.50
2019-04-05T09:43:47.653Z,18.60
2019-04-05T09:46:13.971Z,18.60
2019-04-05T09:48:40.023Z,18.60
2019-04-05T09:51:07.249Z,18.60
2019-04-05T09:53:34.291Z,18.60
2019-04-05T09:56:00.624Z,18.60
2019-04-05T09:58:26.674Z,18.60
2019-04-05T10:00:52.971Z,18.60
2019-04-05T10:03:19.407Z,18.70
2019-04-05T10:05:45.532Z,18.70
2019-04-05T10:08:12.576Z,18.60
2019-04-05T10:10:38.628Z,18.60
2019-04-05T10:15:31.435Z,18.70
2019-04-05T10:17:57.904Z,18.70
2019-04-05T10:20:23.952Z,18.70
2019-04-05T10:22:50.252Z,18.70
2019-04-05T10:27:43.320Z,18.70
2019-04-05T10:30:11.304Z,18.70
2019-04-05T10:32:37.720Z,18.70
2019-04-05T10:35:05.484Z,18.70
2019-04-05T10:37:31.817Z,18.70
2019-04-05T10:39:57.860Z,18.80
2019-04-05T10:42:32.722Z,18.80
2019-04-05T10:44:59.264Z,18.80
2019-04-05T10:50:02.411Z,18.80
2019-04-05T10:52:20.705Z,18.80
2019-04-05T10:54:46.784Z,18.80
2019-04-05T10:57:12.834Z,18.80
2019-04-05T10:59:39.024Z,18.80
2019-04-05T11:02:05.272Z,18.80
2019-04-05T11:04:31.319Z,18.80
2019-04-05T11:09:24.140Z,18.80
2019-04-05T11:11:50.225Z,18.80
2019-04-05T11:14:16.603Z,18.90
2019-04-05T11:16:42.926Z,18.80
2019-04-05T11:19:09.010Z,18.80
2019-04-05T11:24:01.539Z,18.80
2019-04-05T11:26:27.937Z,18.90
2019-04-05T11:28:54.269Z,18.80
2019-04-05T11:31:20.344Z,18.80
2019-04-05T11:33:48.053Z,18.90
2019-04-05T11:36:15.248Z,18.90
2019-04-05T11:41:09.326Z,18.90
2019-04-05T11:43:38.607Z,18.90
2019-04-05T11:46:04.800Z,18.90
2019-04-05T11:48:32.543Z,18.90
2019-04-05T11:53:25.150Z,18.90
2019-04-05T11:58:18.027Z,18.90
2019-04-05T12:00:46.081Z,18.90
2019-04-05T12:03:16.867Z,18.90
2019-04-05T12:05:43.248Z,18.90
2019-04-05T12:08:09.303Z,18.90
2019-04-05T12:10:36.652Z,19.00
2019-04-05T12:17:55.975Z,18.90
2019-04-05T12:20:22.454Z,18.90
2019-04-05T12:22:48.884Z,18.90
2019-04-05T12:25:14.964Z,18.90
2019-04-05T12:32:41.372Z,18.90
2019-04-05T12:35:08.367Z,18.90
2019-04-05T12:37:34.424Z,18.90
2019-04-05T12:42:27.329Z,19.00
2019-04-05T12:44:53.643Z,19.00
2019-04-05T12:47:19.986Z,19.00
2019-04-05T12:49:46.733Z,19.00
2019-04-05T12:52:22.637Z,19.00
2019-04-05T12:54:40.772Z,19.00
2019-04-05T12:59:33.274Z,19.00
2019-04-05T13:04:26.406Z,19.10
2019-04-05T13:06:53.665Z,19.00
2019-04-05T13:09:23.073Z,19.00
2019-04-05T13:11:48.588Z,19.10
2019-04-05T13:14:14.723Z,19.20
2019-04-05T13:16:40.782Z,19.10
2019-04-05T13:21:33.331Z,19.10
2019-04-05T13:26:26.599Z,19.20
2019-04-05T13:28:52.872Z,19.20
2019-04-05T13:33:45.359Z,19.00
2019-04-05T13:36:11.461Z,19.20
2019-04-05T13:38:37.513Z,19.20
2019-04-05T13:41:04.041Z,19.10
2019-04-05T13:45:58.412Z,19.20
2019-04-05T13:48:25.429Z,19.20
2019-04-05T13:50:51.494Z,19.20
2019-04-05T14:00:39.436Z,19.10
2019-04-05T14:03:05.593Z,19.20
2019-04-05T14:10:27.036Z,19.20
2019-04-05T14:17:46.009Z,19.30
2019-04-05T14:20:13.957Z,19.20
2019-04-05T14:22:40.037Z,19.20
2019-04-05T14:27:35.135Z,19.20
2019-04-05T14:32:30.476Z,19.20
2019-04-05T14:34:56.904Z,19.20
2019-04-05T14:39:51.618Z,19.20
2019-04-05T14:44:44.482Z,19.30
2019-04-05T14:47:10.580Z,19.30
2019-04-05T14:54:31.110Z,19.30
2019-04-05T14:57:02.393Z,19.30
2019-04-05T14:59:25.753Z,19.30
2019-04-05T15:01:51.924Z,19.30
2019-04-05T15:04:18.293Z,19.30
2019-04-05T15:06:44.389Z,19.30
2019-04-05T15:11:38.202Z,19.30
2019-04-05T15:14:04.763Z,19.40
2019-04-05T15:21:23.681Z,19.40
2019-04-05T15:23:49.728Z,19.40
2019-04-05T15:26:15.899Z,19.40
2019-04-05T15:28:42.032Z,19.40
2019-04-05T15:33:35.196Z,19.50
2019-04-05T15:45:51.131Z,19.40
2019-04-05T15:48:17.178Z,19.40
2019-04-05T15:50:43.279Z,19.40
2019-04-05T16:00:40.789Z,19.40
2019-04-05T16:08:00.224Z,19.40
2019-04-05T16:10:26.436Z,19.40
2019-04-05T16:15:18.959Z,19.40
2019-04-05T16:17:45.007Z,19.40
2019-04-05T16:22:38.255Z,19.30
2019-04-05T16:29:58.380Z,19.30
2019-04-05T16:32:24.475Z,19.40
2019-04-05T16:34:50.862Z,19.30
2019-04-05T16:37:17.365Z,19.40
2019-04-05T16:39:43.413Z,19.30
2019-04-05T16:42:10.347Z,19.40
2019-04-05T16:44:37.531Z,19.40
2019-04-05T16:47:03.943Z,19.30
2019-04-05T16:49:30.237Z,19.30
2019-04-05T16:56:49.739Z,19.40
2019-04-05T16:59:16.172Z,19.40
2019-04-05T17:04:08.980Z,19.40
2019-04-05T17:09:01.565Z,19.40
2019-04-05T17:11:28.024Z,19.40
2019-04-05T17:13:56.922Z,19.40
2019-04-05T17:16:22.080Z,19.40
2019-04-05T17:21:14.610Z,19.40
2019-04-05T17:23:40.652Z,19.40
2019-04-05T17:28:33.223Z,19.40
2019-04-05T17:33:26.060Z,19.40
2019-04-05T17:35:52.115Z,19.40
2019-04-05T17:40:45.219Z,19.40
2019-04-05T17:43:11.324Z,19.50
2019-04-05T17:50:32.459Z,19.40
2019-04-05T17:53:11.476Z,19.50
2019-04-05T17:55:26.535Z,19.40
2019-04-05T18:10:08.087Z,19.70
2019-04-05T18:12:34.138Z,19.70
2019-04-05T18:15:00.587Z,19.70
2019-04-05T18:17:26.649Z,19.70
2019-04-05T18:22:19.174Z,19.80
2019-04-05T18:24:45.219Z,19.80
2019-04-05T18:29:38.062Z,19.90
2019-04-05T18:36:57.890Z,20.10
2019-04-05T18:41:50.843Z,20.20
2019-04-05T18:44:16.943Z,20.10
2019-04-05T18:49:09.800Z,20.20
2019-04-05T18:51:35.908Z,20.10
2019-04-05T18:54:02.380Z,20.20
2019-04-05T18:56:28.734Z,20.20
2019-04-05T18:58:54.835Z,20.20
2019-04-05T19:13:33.121Z,20.30
2019-04-05T19:20:53.232Z,20.30
2019-04-05T19:23:19.569Z,20.40
2019-04-05T19:28:13.456Z,20.40
2019-04-05T19:52:52.552Z,21.00
2019-04-05T20:00:14.278Z,21.20
2019-04-05T20:02:40.807Z,21.20
2019-04-05T20:05:08.160Z,21.20
2019-04-05T20:07:34.281Z,21.30
2019-04-05T20:12:26.743Z,21.30
2019-04-05T20:14:52.852Z,21.40
2019-04-05T20:17:18.899Z,21.40
2019-04-05T20:22:11.421Z,21.50
2019-04-05T20:24:37.577Z,21.50
2019-04-05T20:27:03.775Z,21.50
2019-04-05T20:29:30.151Z,21.50
2019-04-05T20:31:56.348Z,21.50
2019-04-05T20:34:22.496Z,21.50
2019-04-05T20:36:48.811Z,21.50
2019-04-05T20:39:15.245Z,21.40
2019-04-05T20:46:34.744Z,21.40
2019-04-05T20:51:27.542Z,21.40
2019-04-05T20:53:53.592Z,21.40
2019-04-05T20:56:19.643Z,21.30
2019-04-05T21:01:12.414Z,21.30
2019-04-05T21:03:38.756Z,21.30
2019-04-05T21:08:31.252Z,21.30
2019-04-05T21:10:57.639Z,21.20
2019-04-05T21:13:24.069Z,21.20
2019-04-05T21:15:50.121Z,21.20
2019-04-05T21:18:16.166Z,21.20
2019-04-05T21:23:08.664Z,21.10
2019-04-05T21:25:35.109Z,21.10
2019-04-05T21:28:02.139Z,21.10
2019-04-05T21:35:21.080Z,21.10
2019-04-05T21:37:47.165Z,21.00
2019-04-05T21:40:14.519Z,20.90
2019-04-05T21:42:40.860Z,21.00
2019-04-05T21:45:07.488Z,20.90
2019-04-05T21:47:33.811Z,20.90
2019-04-05T21:49:59.859Z,20.90
2019-04-05T21:52:25.941Z,20.80
2019-04-05T21:54:51.987Z,20.90
2019-04-05T21:57:18.312Z,20.80
2019-04-05T22:02:12.150Z,20.80
2019-04-05T22:09:31.328Z,20.80
2019-04-05T22:11:57.383Z,20.70
2019-04-05T22:14:23.445Z,20.70
2019-04-05T22:16:49.528Z,20.70
2019-04-05T22:19:15.576Z,20.60
2019-04-05T22:21:41.916Z,20.60
2019-04-05T22:33:53.976Z,20.50
2019-04-05T22:36:20.073Z,20.50
2019-04-05T22:38:46.115Z,20.50
2019-04-05T22:41:12.208Z,20.50
2019-04-05T22:43:38.287Z,20.40
2019-04-05T22:50:57.307Z,20.40
2019-04-05T22:53:23.693Z,20.40
2019-04-05T22:58:16.188Z,20.40
2019-04-05T23:05:35.811Z,20.30
2019-04-05T23:10:29.239Z,20.30
2019-04-05T23:12:55.319Z,20.30
2019-04-05T23:15:21.369Z,20.20
2019-04-05T23:17:47.449Z,20.30
2019-04-05T23:20:14.652Z,20.20
2019-04-05T23:22:40.984Z,20.20
2019-04-05T23:27:33.850Z,20.20
2019-04-05T23:29:59.936Z,20.20
2019-04-05T23:37:19.471Z,20.10
2019-04-05T23:42:12.328Z,20.10
2019-04-05T23:44:38.670Z,20.10
2019-04-05T23:49:31.532Z,20.00
2019-04-05T23:51:57.583Z,20.00
2019-04-05T23:56:50.730Z,20.00
2019-04-05T23:59:17.058Z,20.10
